Katharina — V2DQ5 — position and weather

sailwx.info

Track history (hours):
 
Tides and Currents Weather Stations Pressure Air Temp Water Temp Dewpoint Dewpoint Depression Visibility Wind Speed Wind Dir Waves Ship Positions

Katharina

Last reported at 2015-Jun-24 23:30 UTC. Time now 2015-Jun-29 23:10 UTC.
Position N 53°59' E 005°03'.

Length 146 m; draft 5.8 m.

Type: Ship. MMSI: 305305000.

Date/timePositionNaut miles runAvg speedWind from/ knotsBaromVisibWave heightAir tempDewpointWater temp
2015-Jun-24 23:30N 53°59' E 005°03'1411.6
2015-Jun-24 22:17N 53°46' E 004°55'1211.6
2015-Jun-24 21:17N 53°34' E 004°48'911.8
2015-Jun-24 20:32N 53°26' E 004°43'2211.2
2015-Jun-24 18:33N 53°06' E 004°27'68 9.7
2015-Jun-24 11:33N 52°01' E 003°59'1313.0
2015-Jun-24 10:33N 51°54' E 004°17'5 3.1
2015-Jun-24 09:04N 51°53' E 004°25'0 0.0
2015-Jun-24 07:28N 51°53' E 004°25'0 0.0
2015-Jun-24 05:22N 51°53' E 004°25'0 0.0
2015-Jun-24 04:22N 51°53' E 004°25'0 0.0
2015-Jun-24 03:16N 51°53' E 004°25'0 0.0
2015-Jun-24 02:28N 51°53' E 004°25'0 0.0
2015-Jun-24 00:28N 51°53' E 004°25'0 0.0
2015-Jun-23 23:22N 51°53' E 004°25'0 0.0
2015-Jun-23 22:16N 51°53' E 004°25'0 0.0
2015-Jun-23 19:16N 51°53' E 004°25'0 0.0
2015-Jun-22 19:28N 51°53' E 004°25'0 0.0
2015-Jun-22 17:28N 51°53' E 004°25'0 0.0
2015-Jun-22 16:31N 51°53' E 004°25'0 0.0
2015-Jun-22 15:16N 51°53' E 004°25'0 0.0
2015-Jun-22 12:22N 51°53' E 004°25'0 0.0
2015-Jun-22 10:31N 51°53' E 004°25'0 0.0
2015-Jun-22 09:25N 51°53' E 004°25'0 0.0
2015-Jun-22 05:25N 51°53' E 004°25'0 0.0
2015-Jun-22 03:22N 51°53' E 004°25'0 0.0
2015-Jun-22 02:22N 51°53' E 004°25'0 0.0
2015-Jun-22 00:16N 51°53' E 004°25'0 0.0
2015-Jun-21 23:16N 51°53' E 004°25'0 0.0
2015-Jun-21 22:13N 51°53' E 004°25'1 1.0
2015-Jun-21 21:33N 51°54' E 004°24'7 6.9
2015-Jun-21 20:33N 51°56' E 004°13'1010.5
2015-Jun-21 19:34N 52°01' E 003°58'8812.0
2015-Jun-21 12:11N 52°52' E 002°01'914.0
2015-Jun-21 11:33N 52°58' E 001°50'1414.0
2015-Jun-21 10:33N 53°06' E 001°31'5613.6
2015-Jun-21 06:28N 53°46' E 000°26'1313.6
2015-Jun-21 05:31N 53°59' E 000°22'1612.9
2015-Jun-21 04:17N 54°14' E 000°15'912.5
2015-Jun-21 03:33N 54°23' E 000°10'1212.1
2015-Jun-21 02:33N 54°34' E 000°02'1212.0
2015-Jun-21 01:32N 54°46' W 000°05'16912.1
2015-Jun-20 11:33N 57°30' W 001°20'  
Track history (hours):
 
Tides and Currents Weather Stations Pressure Air Temp Water Temp Dewpoint Dewpoint Depression Visibility Wind Speed Wind Dir Waves Ship Positions

Katharina

Last reported at 2015-Jun-24 23:30 UTC. Time now 2015-Jun-29 23:10 UTC.
Position N 53°59' E 005°03'.

Length 146 m; draft 5.8 m.

Type: Ship. MMSI: 305305000.

Date/timePositionNaut miles runAvg speedWind from/ knotsBaromVisibWave heightAir tempDewpointWater temp
2015-Jun-24 23:30N 53°59' E 005°03'1411.6
2015-Jun-24 22:17N 53°46' E 004°55'1211.6
2015-Jun-24 21:17N 53°34' E 004°48'911.8
2015-Jun-24 20:32N 53°26' E 004°43'2211.2
2015-Jun-24 18:33N 53°06' E 004°27'68 9.7
2015-Jun-24 11:33N 52°01' E 003°59'1313.0
2015-Jun-24 10:33N 51°54' E 004°17'5 3.1
2015-Jun-24 09:04N 51°53' E 004°25'0 0.0
2015-Jun-24 07:28N 51°53' E 004°25'0 0.0
2015-Jun-24 05:22N 51°53' E 004°25'0 0.0
2015-Jun-24 04:22N 51°53' E 004°25'0 0.0
2015-Jun-24 03:16N 51°53' E 004°25'0 0.0
2015-Jun-24 02:28N 51°53' E 004°25'0 0.0
2015-Jun-24 00:28N 51°53' E 004°25'0 0.0
2015-Jun-23 23:22N 51°53' E 004°25'0 0.0
2015-Jun-23 22:16N 51°53' E 004°25'0 0.0
2015-Jun-23 19:16N 51°53' E 004°25'0 0.0
2015-Jun-22 19:28N 51°53' E 004°25'0 0.0
2015-Jun-22 17:28N 51°53' E 004°25'0 0.0
2015-Jun-22 16:31N 51°53' E 004°25'0 0.0
2015-Jun-22 15:16N 51°53' E 004°25'0 0.0
2015-Jun-22 12:22N 51°53' E 004°25'0 0.0
2015-Jun-22 10:31N 51°53' E 004°25'0 0.0
2015-Jun-22 09:25N 51°53' E 004°25'0 0.0
2015-Jun-22 05:25N 51°53' E 004°25'0 0.0
2015-Jun-22 03:22N 51°53' E 004°25'0 0.0
2015-Jun-22 02:22N 51°53' E 004°25'0 0.0
2015-Jun-22 00:16N 51°53' E 004°25'0 0.0
2015-Jun-21 23:16N 51°53' E 004°25'0 0.0
2015-Jun-21 22:13N 51°53' E 004°25'1 1.0
2015-Jun-21 21:33N 51°54' E 004°24'7 6.9
2015-Jun-21 20:33N 51°56' E 004°13'1010.5
2015-Jun-21 19:34N 52°01' E 003°58'8812.0
2015-Jun-21 12:11N 52°52' E 002°01'914.0
2015-Jun-21 11:33N 52°58' E 001°50'1414.0
2015-Jun-21 10:33N 53°06' E 001°31'5613.6
2015-Jun-21 06:28N 53°46' E 000°26'1313.6
2015-Jun-21 05:31N 53°59' E 000°22'1612.9
2015-Jun-21 04:17N 54°14' E 000°15'912.5
2015-Jun-21 03:33N 54°23' E 000°10'1212.1
2015-Jun-21 02:33N 54°34' E 000°02'1212.0
2015-Jun-21 01:32N 54°46' W 000°05'16912.1
2015-Jun-20 11:33N 57°30' W 001°20'  

Dump ship's entire track history